Time;durP1;ratioP1;P1;durP2;ratioP2;P2;SDS_P1;SDS_P2;PMS_P1;PMS_P2;Temp;Humidity;BMP_temperature;BMP_pressure;BME280_temperature;BME280_humidity;BME280_pressure;Samples;Min_cycle;Max_cycle;Signal;HPM_P1;HPM_P2
2023/01/11 05:02:30;;;;;;;1.93;1.53;;;8.50;99.90;;;;;;5048116;23;20526;-71
2023/01/11 05:04:56;;;;;;;2.27;1.30;;;8.50;99.90;;;;;;4965985;28;20884;-71
2023/01/11 05:07:23;;;;;;;2.70;1.50;;;8.40;99.90;;;;;;4965392;28;21140;-72
2023/01/11 05:09:50;;;;;;;2.03;0.90;;;8.50;99.90;;;;;;4966173;28;20457;-72
2023/01/11 05:12:17;;;;;;;1.00;0.97;;;8.40;99.90;;;;;;4966481;28;20482;-72
2023/01/11 05:14:43;;;;;;;1.10;1.00;;;8.40;99.90;;;;;;4966425;28;20467;-71
2023/01/11 05:17:13;;;;;;;1.17;0.90;;;8.50;99.90;;;;;;4965629;28;20467;-72
2023/01/11 05:19:42;;;;;;;1.53;1.10;;;8.50;99.90;;;;;;4965031;28;21059;-71
2023/01/11 05:22:09;;;;;;;1.37;1.00;;;8.60;99.90;;;;;;4965943;28;21018;-74
2023/01/11 05:24:36;;;;;;;1.50;1.10;;;8.60;99.90;;;;;;4966442;28;20456;-73
2023/01/11 05:27:03;;;;;;;0.97;0.90;;;8.60;99.90;;;;;;4965827;28;20483;-71
2023/01/11 05:29:30;;;;;;;2.70;1.10;;;8.60;99.90;;;;;;4966451;28;20506;-71
2023/01/11 05:31:57;;;;;;;0.97;0.97;;;8.70;99.90;;;;;;4965876;28;20480;-72
2023/01/11 05:34:23;;;;;;;1.63;0.93;;;8.70;99.90;;;;;;4966487;28;20463;-71
2023/01/11 05:36:51;;;;;;;1.17;1.10;;;8.70;99.90;;;;;;4965534;28;20455;-71
2023/01/11 05:39:18;;;;;;;1.20;0.97;;;8.80;99.90;;;;;;4969726;28;20456;-72
2023/01/11 05:41:45;;;;;;;1.10;1.00;;;8.80;99.90;;;;;;4970042;28;20490;-71
2023/01/11 05:46:57;;;;;;;1.30;1.20;;;8.90;99.90;;;;;;4968835;28;20446;-73
2023/01/11 05:49:24;;;;;;;3.80;1.40;;;8.90;99.90;;;;;;4969338;28;20506;-73
2023/01/11 05:51:52;;;;;;;1.07;0.97;;;8.90;99.90;;;;;;4969597;28;20476;-73
2023/01/11 05:54:19;;;;;;;1.20;1.10;;;8.90;99.90;;;;;;4969695;28;20456;-72
2023/01/11 05:56:46;;;;;;;1.27;1.00;;;8.90;99.90;;;;;;4968938;28;20460;-72
2023/01/11 05:59:12;;;;;;;1.00;0.90;;;8.90;99.90;;;;;;4969635;28;20531;-72
2023/01/11 06:01:39;;;;;;;1.17;1.07;;;8.90;99.90;;;;;;4969458;28;20496;-72
2023/01/11 06:04:07;;;;;;;1.00;0.90;;;9.00;99.90;;;;;;4969087;28;20456;-71
2023/01/11 06:06:34;;;;;;;1.23;1.13;;;9.00;99.90;;;;;;4968364;28;20483;-74
2023/01/11 06:09:02;;;;;;;0.80;0.80;;;9.00;99.90;;;;;;4968874;28;21076;-72
2023/01/11 06:11:29;;;;;;;1.20;1.10;;;9.00;99.90;;;;;;4969283;28;20479;-72
2023/01/11 06:13:56;;;;;;;1.77;1.00;;;9.00;99.90;;;;;;4969036;28;20542;-73
2023/01/11 06:16:23;;;;;;;3.03;1.97;;;9.00;99.90;;;;;;4968229;28;20484;-73
2023/01/11 06:18:52;;;;;;;1.60;1.07;;;9.10;99.90;;;;;;4969124;28;20456;-73
2023/01/11 06:21:19;;;;;;;1.30;1.00;;;9.10;99.90;;;;;;4969091;28;20476;-72
2023/01/11 06:23:49;;;;;;;1.30;1.20;;;9.10;99.90;;;;;;4968851;28;20475;-73
2023/01/11 06:26:20;;;;;;;1.00;1.00;;;9.10;99.90;;;;;;4967856;28;20467;-72
2023/01/11 06:28:47;;;;;;;2.03;1.00;;;9.00;99.90;;;;;;4968680;28;20507;-72
2023/01/11 06:31:14;;;;;;;0.90;0.90;;;9.00;99.90;;;;;;4968630;28;20560;-71
2023/01/11 06:33:41;;;;;;;2.53;0.90;;;8.90;99.90;;;;;;4969013;28;20471;-65
2023/01/11 06:36:10;;;;;;;0.80;0.80;;;9.00;99.90;;;;;;4968441;28;20459;-70
2023/01/11 06:38:37;;;;;;;0.93;0.83;;;8.90;99.90;;;;;;4969211;28;20456;-70
2023/01/11 06:41:07;;;;;;;1.43;0.80;;;8.90;99.90;;;;;;4968710;28;20527;-71
2023/01/11 06:43:36;;;;;;;1.97;1.10;;;8.90;99.90;;;;;;4968609;28;20463;-70
2023/01/11 06:46:02;;;;;;;1.10;0.90;;;8.90;99.90;;;;;;4967944;28;20467;-71
2023/01/11 06:48:29;;;;;;;1.10;1.00;;;8.90;99.90;;;;;;4967382;28;20515;-70
2023/01/11 06:50:57;;;;;;;0.73;0.73;;;8.80;99.90;;;;;;4968607;28;20488;-70
2023/01/11 06:53:26;;;;;;;1.60;1.00;;;8.80;99.90;;;;;;4968797;28;20444;-70
2023/01/11 06:55:54;;;;;;;1.10;1.00;;;8.80;99.90;;;;;;4968427;28;20560;-70
2023/01/11 06:58:22;;;;;;;2.20;1.20;;;8.90;99.90;;;;;;4968549;28;20467;-70
2023/01/11 07:00:51;;;;;;;1.30;1.00;;;8.80;99.90;;;;;;4968490;28;20496;-70
2023/01/11 07:03:19;;;;;;;1.30;1.10;;;8.80;99.90;;;;;;4968318;28;20467;-70
2023/01/11 07:05:46;;;;;;;1.30;1.20;;;8.80;99.90;;;;;;4967721;28;21031;-70
2023/01/11 07:08:13;;;;;;;1.60;1.00;;;8.80;99.90;;;;;;4968189;28;20492;-70
2023/01/11 07:10:40;;;;;;;1.60;1.10;;;8.80;99.90;;;;;;4968312;28;20480;-71
2023/01/11 07:13:07;;;;;;;1.03;0.97;;;8.80;99.90;;;;;;4967923;28;20464;-69
2023/01/11 07:15:34;;;;;;;0.80;0.80;;;8.80;99.90;;;;;;4968244;28;20460;-70
2023/01/11 07:18:02;;;;;;;1.07;1.00;;;8.80;99.90;;;;;;4967478;28;20975;-70
2023/01/11 07:20:29;;;;;;;1.10;1.00;;;8.80;99.90;;;;;;4967907;28;20463;-71
2023/01/11 07:23:00;;;;;;;1.00;0.90;;;8.80;99.90;;;;;;4967938;28;20461;-71
2023/01/11 07:25:28;;;;;;;1.27;1.17;;;8.80;99.90;;;;;;4967871;28;20457;-70
2023/01/11 07:27:58;;;;;;;1.80;1.00;;;8.80;99.90;;;;;;4967187;28;20528;-71
2023/01/11 07:30:26;;;;;;;1.07;1.00;;;8.70;99.90;;;;;;4967724;28;20457;-70
2023/01/11 07:32:53;;;;;;;2.73;1.60;;;8.80;99.90;;;;;;4968344;28;20467;-71
2023/01/11 07:35:21;;;;;;;3.60;2.07;;;8.80;99.90;;;;;;4967845;28;20452;-66
2023/01/11 07:37:48;;;;;;;4.33;2.50;;;8.80;99.90;;;;;;4966650;28;21046;-65
2023/01/11 07:40:16;;;;;;;3.50;1.77;;;8.80;99.90;;;;;;4967191;28;20453;-65
2023/01/11 07:45:32;;;;;;;1.20;1.10;;;8.80;99.90;;;;;;4967451;28;20425;-70
2023/01/11 07:47:59;;;;;;;1.10;1.00;;;8.90;99.90;;;;;;4967002;28;20480;-71
2023/01/11 07:50:27;;;;;;;1.63;1.00;;;8.90;99.90;;;;;;4967531;28;20456;-70
2023/01/11 07:52:54;;;;;;;1.87;1.00;;;8.90;99.90;;;;;;4967491;28;20464;-72
2023/01/11 07:55:20;;;;;;;1.40;1.17;;;9.00;99.90;;;;;;4967518;28;20453;-71
2023/01/11 07:57:47;;;;;;;3.13;1.17;;;9.00;99.90;;;;;;4966988;28;20448;-70
2023/01/11 08:00:15;;;;;;;1.20;1.10;;;8.90;99.90;;;;;;4967130;28;20455;-70
2023/01/11 08:02:42;;;;;;;1.70;1.40;;;9.00;99.90;;;;;;4967483;28;20961;-70
2023/01/11 08:05:10;;;;;;;4.27;1.40;;;9.00;99.90;;;;;;4967547;28;21512;-71
2023/01/11 08:07:40;;;;;;;2.03;1.40;;;8.90;99.90;;;;;;4967036;28;20444;-71
2023/01/11 08:10:09;;;;;;;1.40;1.30;;;8.90;99.90;;;;;;4967393;28;20480;-72
2023/01/11 08:15:25;;;;;;;1.00;0.90;;;9.10;99.90;;;;;;4967326;28;20443;-71
2023/01/11 08:17:51;;;;;;;1.77;1.27;;;9.10;99.90;;;;;;4966969;28;20463;-71
2023/01/11 08:20:19;;;;;;;1.27;1.13;;;9.10;99.90;;;;;;4967039;28;20979;-71
2023/01/11 08:22:48;;;;;;;1.17;1.07;;;9.20;99.90;;;;;;4967337;28;20527;-71
2023/01/11 08:25:15;;;;;;;1.47;1.10;;;9.30;99.90;;;;;;4967067;28;20972;-71
2023/01/11 08:27:42;;;;;;;0.90;0.90;;;9.30;99.90;;;;;;4966613;28;21015;-71
2023/01/11 08:30:10;;;;;;;1.43;1.07;;;9.40;99.90;;;;;;4966993;28;20524;-71
2023/01/11 08:32:37;;;;;;;3.40;1.20;;;9.40;99.90;;;;;;4967065;28;20476;-72
2023/01/11 08:35:04;;;;;;;2.10;1.70;;;9.40;99.90;;;;;;4967361;28;20483;-71
2023/01/11 08:37:31;;;;;;;1.30;1.20;;;9.50;99.90;;;;;;4966774;28;20457;-71
2023/01/11 08:39:59;;;;;;;1.87;1.30;;;9.60;99.90;;;;;;4966698;28;20811;-71
2023/01/11 08:42:26;;;;;;;2.93;1.33;;;9.60;99.90;;;;;;4966959;28;20473;-71
2023/01/11 08:44:54;;;;;;;1.20;1.10;;;9.70;99.90;;;;;;4966958;28;20464;-72
2023/01/11 08:47:21;;;;;;;2.20;1.40;;;9.70;99.90;;;;;;4966594;28;20467;-71
2023/01/11 08:49:48;;;;;;;1.43;1.10;;;9.80;99.90;;;;;;4966728;28;20492;-72
2023/01/11 08:52:14;;;;;;;1.00;0.87;;;9.80;99.90;;;;;;4966848;28;20503;-70
2023/01/11 08:54:41;;;;;;;1.17;1.07;;;9.80;99.90;;;;;;4967138;28;20455;-72
2023/01/11 08:57:10;;;;;;;1.23;1.13;;;9.90;99.90;;;;;;4966421;28;20452;-71
2023/01/11 08:59:36;;;;;;;1.20;1.10;;;9.90;99.90;;;;;;4966789;28;20463;-71
2023/01/11 09:02:05;;;;;;;1.10;1.00;;;9.90;99.90;;;;;;4966576;28;21281;-71
2023/01/11 09:04:32;;;;;;;0.90;0.90;;;10.00;99.90;;;;;;4966704;28;20449;-71
2023/01/11 09:06:59;;;;;;;0.90;0.90;;;10.00;99.90;;;;;;4966181;28;20493;-71
2023/01/11 09:09:26;;;;;;;1.30;0.83;;;10.00;99.90;;;;;;4966655;28;20495;-72
2023/01/11 09:11:57;;;;;;;2.30;1.27;;;10.10;99.90;;;;;;4967482;28;20476;-71
2023/01/11 09:14:27;;;;;;;1.10;1.00;;;10.10;99.90;;;;;;4970348;28;20495;-72
2023/01/11 09:16:54;;;;;;;2.10;1.30;;;10.10;99.90;;;;;;4985492;28;20462;-72
2023/01/11 09:19:23;;;;;;;3.10;2.00;;;10.10;99.90;;;;;;4989583;28;20458;-72
2023/01/11 09:21:50;;;;;;;1.83;1.60;;;10.20;99.90;;;;;;4989469;28;20573;-72
2023/01/11 09:24:17;;;;;;;1.13;1.03;;;10.20;99.90;;;;;;4988863;28;20462;-72
2023/01/11 09:26:43;;;;;;;1.93;1.40;;;10.20;99.90;;;;;;4988720;28;20465;-72
2023/01/11 09:29:11;;;;;;;1.30;1.20;;;10.20;99.90;;;;;;4989115;28;20499;-72
2023/01/11 09:31:39;;;;;;;1.90;1.40;;;10.20;99.90;;;;;;4989183;28;20861;-72
2023/01/11 09:34:07;;;;;;;1.00;1.00;;;10.30;99.90;;;;;;4984290;28;20902;-72
2023/01/11 09:36:35;;;;;;;1.07;0.90;;;10.30;99.90;;;;;;4987926;28;20467;-72
2023/01/11 09:39:06;;;;;;;1.30;1.20;;;10.30;99.90;;;;;;4988787;28;20971;-72
2023/01/11 09:42:15;;;;;;;1.30;0.97;;;10.40;99.90;;;;;;4989486;28;20493;-73
2023/01/11 09:44:49;;;;;;;1.63;1.07;;;10.40;99.90;;;;;;4989064;28;20549;-73
2023/01/11 09:47:27;;;;;;;1.33;0.97;;;10.40;99.90;;;;;;4988172;28;20434;-73
2023/01/11 09:49:58;;;;;;;1.47;1.10;;;10.50;99.90;;;;;;4988589;28;20583;-73
2023/01/11 09:52:29;;;;;;;1.10;0.87;;;10.50;99.90;;;;;;4988615;28;20484;-73
2023/01/11 09:54:58;;;;;;;3.50;1.30;;;10.50;99.90;;;;;;4989064;28;20459;-73
2023/01/11 09:57:41;;;;;;;1.27;1.17;;;10.50;99.90;;;;;;4988008;28;20455;-73
2023/01/11 10:00:18;;;;;;;1.07;1.00;;;10.60;99.90;;;;;;4989109;28;20459;-73
2023/01/11 10:03:02;;;;;;;2.03;1.43;;;10.50;99.90;;;;;;4989106;28;20462;-73
2023/01/11 10:05:45;;;;;;;1.03;1.00;;;10.60;99.90;;;;;;4988779;28;20514;-73
2023/01/11 10:08:26;;;;;;;2.73;1.70;;;10.60;99.90;;;;;;4987974;28;20466;-73
2023/01/11 10:11:03;;;;;;;2.50;1.20;;;10.60;99.90;;;;;;4988452;28;20510;-73
2023/01/11 10:13:45;;;;;;;2.10;1.33;;;10.50;99.90;;;;;;4988549;28;20452;-73
2023/01/11 10:16:27;;;;;;;3.27;1.50;;;10.50;99.90;;;;;;4987727;28;20447;-73
2023/01/11 10:19:07;;;;;;;2.30;1.87;;;10.50;99.90;;;;;;4988590;28;20444;-73
2023/01/11 10:21:42;;;;;;;1.60;1.37;;;10.50;99.90;;;;;;4988398;28;20475;-72
2023/01/11 10:24:16;;;;;;;1.10;1.00;;;10.50;99.90;;;;;;4987901;28;20962;-72
2023/01/11 10:26:44;;;;;;;2.63;2.33;;;10.50;99.90;;;;;;4987816;28;20440;-73
2023/01/11 10:29:37;;;;;;;2.00;1.30;;;10.50;99.90;;;;;;4987618;28;20503;-73
2023/01/11 10:32:30;;;;;;;1.23;1.13;;;10.60;99.90;;;;;;4987999;28;20472;-73
2023/01/11 10:35:23;;;;;;;1.57;1.13;;;10.60;99.90;;;;;;4987953;28;20574;-73
2023/01/11 10:38:09;;;;;;;1.90;1.10;;;10.60;99.90;;;;;;4987444;28;20958;-73
2023/01/11 10:43:28;;;;;;;1.60;1.17;;;10.60;99.90;;;;;;4987599;28;20484;-73
2023/01/11 10:45:57;;;;;;;1.20;1.10;;;10.60;99.90;;;;;;4987733;28;20844;-73
2023/01/11 10:48:30;;;;;;;1.30;1.20;;;10.70;99.90;;;;;;4987912;28;20502;-73
2023/01/11 10:51:03;;;;;;;1.70;1.60;;;10.70;99.90;;;;;;4987653;28;20531;-72
2023/01/11 10:53:36;;;;;;;1.00;1.00;;;10.70;99.90;;;;;;4987959;28;20435;-73
2023/01/11 10:56:15;;;;;;;5.20;1.30;;;10.80;99.90;;;;;;4987245;28;20943;-73
2023/01/11 10:59:06;;;;;;;2.07;1.30;;;10.80;99.90;;;;;;4988026;28;20463;-73
2023/01/11 11:01:53;;;;;;;1.30;1.20;;;10.80;99.90;;;;;;4987464;28;20486;-73
2023/01/11 11:04:38;;;;;;;2.70;1.30;;;10.80;99.90;;;;;;4987788;28;20833;-73
2023/01/11 11:07:12;;;;;;;1.27;0.90;;;10.70;99.90;;;;;;4987143;28;20439;-73
2023/01/11 11:09:45;;;;;;;2.17;1.33;;;10.70;99.90;;;;;;4987844;28;20517;-75
2023/01/11 11:12:18;;;;;;;1.37;1.27;;;10.70;99.90;;;;;;4987314;28;20480;-73
2023/01/11 11:14:56;;;;;;;6.60;1.50;;;10.70;99.90;;;;;;4987268;28;21004;-73
2023/01/11 11:17:25;;;;;;;2.17;1.50;;;10.70;99.90;;;;;;4987048;28;20514;-73
2023/01/11 11:19:52;;;;;;;1.53;1.13;;;10.70;99.90;;;;;;4987814;28;20459;-74
2023/01/11 11:22:20;;;;;;;1.20;1.10;;;10.70;99.90;;;;;;4986869;28;20483;-73
2023/01/11 11:24:52;;;;;;;1.53;1.20;;;10.70;99.90;;;;;;4981193;28;20455;-73
2023/01/11 11:27:25;;;;;;;1.50;1.23;;;10.60;99.90;;;;;;4986045;28;20455;-73
2023/01/11 11:29:54;;;;;;;1.57;1.30;;;10.60;99.90;;;;;;4987458;28;20486;-73
2023/01/11 11:32:25;;;;;;;1.80;1.17;;;10.60;99.90;;;;;;4986780;28;20486;-73
2023/01/11 11:34:53;;;;;;;2.70;1.50;;;10.70;99.90;;;;;;4986524;28;20455;-73
2023/01/11 11:37:25;;;;;;;2.27;1.80;;;10.60;99.90;;;;;;4986464;28;20455;-73
2023/01/11 11:39:53;;;;;;;2.30;1.40;;;10.60;99.90;;;;;;4986823;28;20859;-73
2023/01/11 11:42:21;;;;;;;2.07;1.47;;;10.60;99.90;;;;;;4986354;28;20468;-73
2023/01/11 11:45:14;;;;;;;3.70;1.60;;;10.60;99.90;;;;;;4948425;29;20556;-73
2023/01/11 11:47:42;;;;;;;1.97;1.47;;;10.60;99.90;;;;;;4982800;28;20514;-73
2023/01/11 11:50:26;;;;;;;1.50;1.30;;;10.60;99.90;;;;;;4986631;28;20506;-73
2023/01/11 11:53:02;;;;;;;1.70;1.40;;;10.60;99.90;;;;;;4986873;28;20454;-73
2023/01/11 11:55:31;;;;;;;2.50;1.53;;;10.60;99.90;;;;;;4986952;28;20463;-73
2023/01/11 11:58:00;;;;;;;2.70;1.20;;;10.50;99.90;;;;;;4985642;28;20462;-73
2023/01/11 12:00:29;;;;;;;1.33;1.23;;;10.60;99.90;;;;;;4986399;28;20967;-73
2023/01/11 12:02:59;;;;;;;1.90;1.40;;;10.50;99.90;;;;;;4986712;28;20937;-73
2023/01/11 12:05:26;;;;;;;2.23;1.33;;;10.50;99.90;;;;;;4986788;28;20459;-73
2023/01/11 12:07:55;;;;;;;1.90;1.30;;;10.50;99.90;;;;;;4986080;28;20459;-73
2023/01/11 12:10:24;;;;;;;2.00;1.50;;;10.50;99.90;;;;;;4986654;28;20506;-73
2023/01/11 12:12:53;;;;;;;1.50;1.20;;;10.50;99.90;;;;;;4986351;28;20978;-73
2023/01/11 12:15:24;;;;;;;1.73;1.30;;;10.50;99.90;;;;;;4986667;28;20458;-73
2023/01/11 12:17:51;;;;;;;1.40;1.30;;;10.50;99.90;;;;;;4986165;28;20475;-72
2023/01/11 12:20:28;;;;;;;2.70;1.30;;;10.60;99.90;;;;;;4986145;28;20452;-73
2023/01/11 12:23:17;;;;;;;2.53;1.30;;;10.50;99.90;;;;;;4986787;28;20440;-72
2023/01/11 12:26:11;;;;;;;1.70;1.37;;;10.50;99.90;;;;;;4986626;28;20436;-73
2023/01/11 12:29:08;;;;;;;1.97;1.40;;;10.50;99.90;;;;;;4986718;28;20439;-72
2023/01/11 12:31:44;;;;;;;2.60;1.20;;;10.50;99.90;;;;;;4986628;28;20503;-73
2023/01/11 12:34:28;;;;;;;1.73;1.17;;;10.50;99.90;;;;;;4986205;28;20947;-73
2023/01/11 12:37:05;;;;;;;1.47;1.37;;;10.50;99.90;;;;;;4984636;28;20446;-73
2023/01/11 12:39:40;;;;;;;2.20;1.30;;;10.50;99.90;;;;;;4985408;28;20915;-76
2023/01/11 12:42:27;;;;;;;1.60;1.50;;;10.50;99.90;;;;;;4985306;28;20479;-73
2023/01/11 12:45:07;;;;;;;1.10;1.10;;;10.50;99.90;;;;;;4985511;28;20448;-73
2023/01/11 12:48:01;;;;;;;1.67;1.43;;;10.50;99.90;;;;;;4988401;28;20440;-73
2023/01/11 12:50:33;;;;;;;2.13;1.60;;;10.50;99.90;;;;;;4989216;28;20506;-73
2023/01/11 12:53:13;;;;;;;5.70;2.17;;;10.60;99.90;;;;;;4989065;28;20835;-73
2023/01/11 12:55:52;;;;;;;2.10;1.90;;;10.50;99.90;;;;;;4989197;28;21389;-72
2023/01/11 12:58:27;;;;;;;1.40;1.30;;;10.50;99.90;;;;;;4988562;28;20451;-73
2023/01/11 13:01:08;;;;;;;1.70;1.30;;;10.50;99.90;;;;;;4988608;28;20482;-72
2023/01/11 13:04:11;;;;;;;1.87;1.50;;;10.50;99.90;;;;;;4989055;28;20466;-72
2023/01/11 13:06:43;;;;;;;1.47;1.37;;;10.50;99.90;;;;;;4988416;28;20463;-72
2023/01/11 13:09:22;;;;;;;3.20;2.00;;;10.50;99.90;;;;;;4989198;28;20440;-72
2023/01/11 13:11:57;;;;;;;2.83;2.10;;;10.50;99.90;;;;;;4988984;28;20514;-72
2023/01/11 13:14:38;;;;;;;2.70;2.33;;;10.50;99.90;;;;;;4989014;28;20439;-72
2023/01/11 13:17:18;;;;;;;1.87;1.67;;;10.50;99.90;;;;;;4988252;28;20459;-72
2023/01/11 13:19:50;;;;;;;1.70;1.60;;;10.50;99.90;;;;;;4988791;28;20459;-75
2023/01/11 13:22:20;;;;;;;2.47;1.90;;;10.50;99.90;;;;;;4988828;28;20898;-72
2023/01/11 13:24:50;;;;;;;2.30;1.53;;;10.40;99.90;;;;;;4988937;28;20458;-72
2023/01/11 13:27:22;;;;;;;2.53;1.90;;;10.50;99.90;;;;;;4988668;28;20548;-72
2023/01/11 13:29:51;;;;;;;2.30;2.10;;;10.40;99.90;;;;;;4988996;28;20443;-72
2023/01/11 13:32:22;;;;;;;2.30;2.10;;;10.50;99.90;;;;;;4989094;28;20505;-72
2023/01/11 13:34:54;;;;;;;3.40;2.63;;;10.40;99.90;;;;;;4989310;28;20467;-72
2023/01/11 13:37:28;;;;;;;3.10;2.00;;;10.50;99.90;;;;;;4988794;28;20832;-72
2023/01/11 13:39:59;;;;;;;2.53;1.80;;;10.50;99.90;;;;;;4989116;28;20439;-72
2023/01/11 13:42:34;;;;;;;2.43;1.87;;;10.50;99.90;;;;;;4989077;28;20843;-72
2023/01/11 13:45:07;;;;;;;3.90;2.07;;;10.40;99.90;;;;;;4984100;28;20486;-72
2023/01/11 13:47:37;;;;;;;2.67;1.97;;;10.40;99.90;;;;;;4987383;28;20447;-72
2023/01/11 13:50:11;;;;;;;4.17;2.33;;;10.40;99.90;;;;;;4988419;28;20535;-72
2023/01/11 13:52:48;;;;;;;2.97;2.47;;;10.50;99.90;;;;;;4989017;28;20483;-72
2023/01/11 13:55:19;;;;;;;2.23;1.70;;;10.40;99.90;;;;;;4988727;28;20497;-72
2023/01/11 13:57:54;;;;;;;6.03;3.00;;;10.40;99.90;;;;;;4987759;28;20455;-72
2023/01/11 14:00:26;;;;;;;3.00;1.90;;;10.40;99.90;;;;;;4988658;28;20447;-72
2023/01/11 14:02:58;;;;;;;4.00;2.57;;;10.30;99.90;;;;;;4989125;28;20444;-72
2023/01/11 14:05:31;;;;;;;3.97;2.50;;;10.30;99.90;;;;;;4989015;28;20444;-72
2023/01/11 14:08:13;;;;;;;2.33;1.80;;;10.30;99.90;;;;;;4988240;28;20807;-72
2023/01/11 14:10:46;;;;;;;3.23;1.73;;;10.30;99.90;;;;;;4988523;28;20503;-72
2023/01/11 14:14:16;;;;;;;1.90;1.57;;;10.30;99.90;;;;;;4988707;28;20929;-72
2023/01/11 14:17:16;;;;;;;1.47;1.37;;;10.30;99.90;;;;;;4957949;28;20494;-72
2023/01/11 14:19:52;;;;;;;4.43;1.57;;;10.30;99.90;;;;;;4988583;28;20477;-72
2023/01/11 14:22:26;;;;;;;2.10;1.50;;;10.20;99.90;;;;;;4988248;28;20470;-72
2023/01/11 14:25:00;;;;;;;2.53;1.47;;;10.20;99.90;;;;;;4988654;28;20435;-72
2023/01/11 14:27:39;;;;;;;2.80;2.00;;;10.20;99.90;;;;;;4987896;28;20442;-72
2023/01/11 14:30:41;;;;;;;2.27;1.70;;;10.20;99.90;;;;;;4987810;28;21253;-72
2023/01/11 14:33:37;;;;;;;1.97;1.50;;;10.20;99.90;;;;;;4983667;28;20590;-72
2023/01/11 14:36:27;;;;;;;1.93;1.37;;;10.10;99.90;;;;;;4987618;28;20440;-72
2023/01/11 14:39:26;;;;;;;1.40;1.27;;;10.10;99.90;;;;;;4985573;28;20463;-72
2023/01/11 14:42:17;;;;;;;1.30;1.20;;;10.10;99.90;;;;;;4988496;28;20479;-72
2023/01/11 14:45:15;;;;;;;0.87;0.87;;;10.00;99.90;;;;;;4988002;28;20554;-72
2023/01/11 14:48:01;;;;;;;1.30;1.20;;;10.00;99.90;;;;;;4983140;28;20562;-72
2023/01/11 14:50:41;;;;;;;2.40;1.40;;;9.90;99.90;;;;;;4988197;28;20475;-68
2023/01/11 14:53:11;;;;;;;1.63;1.53;;;10.00;99.90;;;;;;4987961;28;20537;-67
2023/01/11 14:55:43;;;;;;;0.93;0.93;;;10.00;99.90;;;;;;4987497;28;20460;-67
2023/01/11 14:58:20;;;;;;;1.97;1.33;;;9.90;99.90;;;;;;4987419;28;20535;-68
2023/01/11 15:01:07;;;;;;;2.67;1.90;;;10.00;99.90;;;;;;4987648;28;20489;-68
2023/01/11 15:03:49;;;;;;;1.77;1.67;;;10.00;99.90;;;;;;4987489;28;21014;-67
2023/01/11 15:06:21;;;;;;;3.63;1.90;;;9.90;99.90;;;;;;4987147;28;20454;-67
2023/01/11 15:08:53;;;;;;;1.80;1.50;;;9.90;99.90;;;;;;4987717;28;20531;-67
2023/01/11 15:11:32;;;;;;;2.27;1.23;;;9.90;99.90;;;;;;4986475;28;20527;-67
2023/01/11 15:14:03;;;;;;;3.10;1.63;;;9.90;99.90;;;;;;4987819;28;20440;-71
2023/01/11 15:19:28;;;;;;;1.87;1.67;;;9.90;99.90;;;;;;4987265;28;20448;-75
2023/01/11 15:21:57;;;;;;;3.83;1.90;;;9.80;99.90;;;;;;4987727;28;20472;-75
2023/01/11 15:24:27;;;;;;;2.90;2.07;;;9.80;99.90;;;;;;4987490;28;20458;-71
2023/01/11 15:26:54;;;;;;;4.40;1.60;;;9.80;99.90;;;;;;4986464;28;21047;-74
2023/01/11 15:29:24;;;;;;;2.73;2.17;;;9.80;99.90;;;;;;4987205;28;21042;-74
2023/01/11 15:32:06;;;;;;;2.80;1.67;;;9.90;99.90;;;;;;4987056;28;21197;-73
2023/01/11 15:34:45;;;;;;;1.90;1.70;;;9.80;99.90;;;;;;4987227;28;20451;-72
2023/01/11 15:37:43;;;;;;;2.20;1.97;;;9.80;99.90;;;;;;4987072;28;20459;-71
2023/01/11 15:40:17;;;;;;;2.43;2.10;;;9.80;99.90;;;;;;4987613;28;20451;-70
2023/01/11 15:43:32;;;;;;;2.00;1.80;;;9.80;99.90;;;;;;4986689;28;21021;-70
2023/01/11 15:46:54;;;;;;;2.90;2.10;;;9.70;99.90;;;;;;4984991;28;20459;-70
2023/01/11 15:49:54;;;;;;;2.77;2.13;;;9.70;99.90;;;;;;4985927;28;20995;-70
2023/01/11 15:52:58;;;;;;;3.33;2.30;;;9.70;99.90;;;;;;4985838;28;20509;-70
2023/01/11 15:56:02;;;;;;;1.63;1.47;;;9.60;99.90;;;;;;4985841;28;20447;-70
2023/01/11 15:59:17;;;;;;;2.70;2.27;;;9.60;99.90;;;;;;4985743;28;20830;-70
2023/01/11 16:02:14;;;;;;;3.83;1.53;;;9.60;99.90;;;;;;4985848;28;20487;-70
2023/01/11 16:04:48;;;;;;;2.00;1.80;;;9.60;99.90;;;;;;4986156;28;20832;-70
2023/01/11 16:07:25;;;;;;;5.50;2.00;;;9.60;99.90;;;;;;4985994;28;20444;-70
2023/01/11 16:10:07;;;;;;;2.27;1.70;;;9.60;99.90;;;;;;4986159;28;20436;-70
2023/01/11 16:12:50;;;;;;;4.57;1.97;;;9.50;99.90;;;;;;4985454;28;20492;-70
2023/01/11 16:15:38;;;;;;;6.00;1.90;;;9.50;99.90;;;;;;4986364;28;20458;-70
2023/01/11 16:18:12;;;;;;;2.80;1.70;;;9.60;99.90;;;;;;4985283;28;20439;-70
2023/01/11 16:20:43;;;;;;;4.77;2.30;;;9.50;99.90;;;;;;4985939;28;20487;-71
2023/01/11 16:23:19;;;;;;;5.90;2.53;;;9.50;99.90;;;;;;4985955;28;20436;-70
2023/01/11 16:25:48;;;;;;;5.77;2.33;;;9.50;99.90;;;;;;4985579;28;20989;-72
2023/01/11 16:28:16;;;;;;;3.63;2.07;;;9.50;99.90;;;;;;4985655;28;20462;-71
2023/01/11 16:30:45;;;;;;;3.77;1.73;;;9.50;99.90;;;;;;4985726;28;20503;-70
2023/01/11 16:33:19;;;;;;;10.83;2.13;;;9.50;99.90;;;;;;4985513;28;20463;-71
2023/01/11 16:35:48;;;;;;;5.67;1.60;;;9.40;99.90;;;;;;4985954;28;20466;-71
2023/01/11 16:38:18;;;;;;;2.80;1.60;;;9.40;99.90;;;;;;4985193;28;20462;-70
2023/01/11 16:40:49;;;;;;;3.93;2.33;;;9.40;99.90;;;;;;4985438;28;20474;-70
2023/01/11 16:43:20;;;;;;;8.50;3.20;;;9.30;99.90;;;;;;4985906;28;20447;-71
2023/01/11 16:45:49;;;;;;;4.90;3.27;;;9.30;99.90;;;;;;4985707;28;20917;-70
2023/01/11 16:48:18;;;;;;;3.93;2.47;;;9.40;99.90;;;;;;4986187;28;20462;-70
2023/01/11 16:50:58;;;;;;;2.20;2.00;;;9.30;99.90;;;;;;4985955;28;20471;-71
2023/01/11 16:53:26;;;;;;;4.13;2.37;;;9.30;99.90;;;;;;4986297;28;20432;-71
2023/01/11 16:55:58;;;;;;;10.70;2.67;;;9.30;99.90;;;;;;4985503;28;20450;-71
2023/01/11 16:58:27;;;;;;;8.17;2.97;;;9.30;99.90;;;;;;4985417;28;20454;-71
2023/01/11 17:00:59;;;;;;;4.40;2.33;;;9.30;99.90;;;;;;4985959;28;20502;-71
2023/01/11 17:03:28;;;;;;;2.67;1.70;;;9.30;99.90;;;;;;4985869;28;20487;-71
2023/01/11 17:06:02;;;;;;;5.83;2.20;;;9.30;99.90;;;;;;4985072;28;20455;-71
2023/01/11 17:08:34;;;;;;;9.90;2.10;;;9.30;99.90;;;;;;4985598;28;20482;-71
2023/01/11 17:11:05;;;;;;;7.40;2.30;;;9.30;99.90;;;;;;4985618;28;20992;-76
2023/01/11 17:13:55;;;;;;;5.13;2.47;;;9.20;99.90;;;;;;4985798;28;20444;-71
2023/01/11 17:16:27;;;;;;;6.30;2.60;;;9.20;99.90;;;;;;4985488;28;20440;-76
2023/01/11 17:18:54;;;;;;;8.33;3.20;;;9.20;99.90;;;;;;4985596;28;20474;-79
2023/01/11 17:21:25;;;;;;;4.70;2.30;;;9.20;99.90;;;;;;4983921;28;20525;-71
2023/01/11 17:23:55;;;;;;;6.00;2.70;;;9.20;99.90;;;;;;4985686;28;20960;-70
2023/01/11 17:26:24;;;;;;;14.47;3.50;;;9.10;99.90;;;;;;4985899;28;20550;-71
2023/01/11 17:28:56;;;;;;;6.13;3.07;;;9.10;99.90;;;;;;4985712;28;20459;-71
2023/01/11 17:31:26;;;;;;;7.30;3.27;;;9.20;99.90;;;;;;4984004;28;20504;-71
2023/01/11 17:34:04;;;;;;;9.00;3.00;;;9.10;99.90;;;;;;4987599;28;20463;-71
2023/01/11 17:36:33;;;;;;;3.77;2.50;;;9.10;99.90;;;;;;4988922;28;20459;-71
2023/01/11 17:39:01;;;;;;;6.67;2.80;;;9.10;99.90;;;;;;4989450;28;20462;-71
2023/01/11 17:47:04;;;;;;;10.50;3.87;;;9.10;99.90;;;;;;4988603;28;20964;-74
2023/01/11 17:49:33;;;;;;;8.50;2.90;;;9.10;99.90;;;;;;4989410;28;20542;-76
2023/01/11 17:52:18;;;;;;;9.13;2.77;;;9.10;99.90;;;;;;4988811;28;20494;-77
2023/01/11 17:54:45;;;;;;;4.83;2.30;;;9.00;99.90;;;;;;4989140;28;20816;-77
2023/01/11 17:57:13;;;;;;;5.73;2.33;;;9.00;99.90;;;;;;4989014;28;20474;-79
2023/01/11 17:59:40;;;;;;;7.20;3.03;;;8.90;99.90;;;;;;4989253;28;20455;-72
2023/01/11 18:02:12;;;;;;;8.87;2.30;;;8.90;99.90;;;;;;4988669;28;20487;-72
2023/01/11 18:04:39;;;;;;;11.90;2.47;;;8.90;99.90;;;;;;4988970;28;20451;-72
2023/01/11 18:07:14;;;;;;;2.83;1.90;;;8.80;99.90;;;;;;4988245;28;20781;-72
2023/01/11 18:09:45;;;;;;;4.70;2.07;;;8.80;99.90;;;;;;4988627;28;20947;-76
2023/01/11 18:12:14;;;;;;;9.50;2.70;;;8.70;99.90;;;;;;4988663;28;20503;-76
2023/01/11 18:14:48;;;;;;;5.33;2.43;;;8.60;99.90;;;;;;4989368;28;20504;-77
2023/01/11 18:17:34;;;;;;;3.90;2.30;;;8.60;99.90;;;;;;4988335;28;20454;-74
2023/01/11 18:20:04;;;;;;;4.10;1.90;;;8.60;99.90;;;;;;4988377;28;20474;-78
2023/01/11 18:22:35;;;;;;;4.50;1.83;;;8.60;99.90;;;;;;4988714;28;20471;-75
2023/01/11 18:25:17;;;;;;;10.47;4.30;;;8.60;99.90;;;;;;4988373;28;20456;-77
2023/01/11 18:27:45;;;;;;;6.80;3.77;;;8.50;99.90;;;;;;4987772;28;20462;-74
2023/01/11 18:30:36;;;;;;;4.43;1.50;;;8.40;99.90;;;;;;4988229;28;20490;-71
2023/01/11 18:33:10;;;;;;;3.73;2.00;;;8.40;99.90;;;;;;4988096;28;20531;-71
2023/01/11 18:35:43;;;;;;;4.03;2.80;;;8.30;99.90;;;;;;4988236;28;20971;-71
2023/01/11 18:38:14;;;;;;;40.13;27.43;;;8.30;99.90;;;;;;4987529;28;20970;-71
2023/01/11 18:40:41;;;;;;;9.43;4.30;;;8.20;99.90;;;;;;4988119;28;20467;-70
2023/01/11 18:43:10;;;;;;;5.97;2.60;;;8.20;99.90;;;;;;4988420;28;20455;-71
2023/01/11 18:45:37;;;;;;;6.77;2.90;;;8.20;99.90;;;;;;4986128;28;20574;-72
2023/01/11 18:48:09;;;;;;;6.73;3.20;;;8.20;99.90;;;;;;4986903;28;20465;-71